sensor_id;sensor_type;location;lat;lon;timestamp;P1;durP1;ratioP1;P2;durP2;ratioP2
9904;SDS011;4991;43.566;27.820;2022-08-14T00:02:25;22.67;;;19.67;;
9904;SDS011;4991;43.566;27.820;2022-08-14T00:04:51;21.30;;;19.00;;
9904;SDS011;4991;43.566;27.820;2022-08-14T00:07:17;21.80;;;19.47;;
9904;SDS011;4991;43.566;27.820;2022-08-14T00:09:43;27.30;;;21.07;;
9904;SDS011;4991;43.566;27.820;2022-08-14T00:12:09;23.60;;;20.40;;
9904;SDS011;4991;43.566;27.820;2022-08-14T00:14:35;27.40;;;21.63;;
9904;SDS011;4991;43.566;27.820;2022-08-14T00:17:02;24.33;;;20.23;;
9904;SDS011;4991;43.566;27.820;2022-08-14T00:19:28;23.90;;;19.60;;
9904;SDS011;4991;43.566;27.820;2022-08-14T00:21:54;26.50;;;19.70;;
9904;SDS011;4991;43.566;27.820;2022-08-14T00:24:20;23.70;;;20.37;;
9904;SDS011;4991;43.566;27.820;2022-08-14T00:26:48;24.30;;;19.47;;
9904;SDS011;4991;43.566;27.820;2022-08-14T00:29:14;24.83;;;20.43;;
9904;SDS011;4991;43.566;27.820;2022-08-14T00:31:40;23.43;;;20.90;;
9904;SDS011;4991;43.566;27.820;2022-08-14T00:34:06;22.57;;;20.30;;
9904;SDS011;4991;43.566;27.820;2022-08-14T00:36:31;23.60;;;20.60;;
9904;SDS011;4991;43.566;27.820;2022-08-14T00:38:57;22.87;;;20.27;;
9904;SDS011;4991;43.566;27.820;2022-08-14T00:41:23;24.90;;;20.47;;
9904;SDS011;4991;43.566;27.820;2022-08-14T00:43:56;22.07;;;18.87;;
9904;SDS011;4991;43.566;27.820;2022-08-14T00:46:23;25.97;;;19.80;;
9904;SDS011;4991;43.566;27.820;2022-08-14T00:48:49;23.27;;;20.30;;
9904;SDS011;4991;43.566;27.820;2022-08-14T00:51:14;22.97;;;20.53;;
9904;SDS011;4991;43.566;27.820;2022-08-14T00:53:40;22.53;;;19.27;;
9904;SDS011;4991;43.566;27.820;2022-08-14T00:56:06;21.30;;;19.10;;
9904;SDS011;4991;43.566;27.820;2022-08-14T00:58:33;20.10;;;18.03;;
9904;SDS011;4991;43.566;27.820;2022-08-14T01:01:04;26.00;;;18.53;;
9904;SDS011;4991;43.566;27.820;2022-08-14T01:03:33;20.57;;;18.20;;
9904;SDS011;4991;43.566;27.820;2022-08-14T01:06:04;23.33;;;18.30;;
9904;SDS011;4991;43.566;27.820;2022-08-14T01:08:35;23.23;;;18.90;;
9904;SDS011;4991;43.566;27.820;2022-08-14T01:11:03;23.17;;;18.10;;
9904;SDS011;4991;43.566;27.820;2022-08-14T01:13:34;25.90;;;18.13;;
9904;SDS011;4991;43.566;27.820;2022-08-14T01:16:06;20.83;;;18.67;;
9904;SDS011;4991;43.566;27.820;2022-08-14T01:18:35;19.87;;;17.73;;
9904;SDS011;4991;43.566;27.820;2022-08-14T01:21:23;20.70;;;17.87;;
9904;SDS011;4991;43.566;27.820;2022-08-14T01:24:00;20.20;;;17.80;;
9904;SDS011;4991;43.566;27.820;2022-08-14T01:26:27;22.03;;;18.40;;
9904;SDS011;4991;43.566;27.820;2022-08-14T01:28:54;20.77;;;18.57;;
9904;SDS011;4991;43.566;27.820;2022-08-14T01:31:22;20.93;;;18.73;;
9904;SDS011;4991;43.566;27.820;2022-08-14T01:33:51;20.67;;;18.50;;
9904;SDS011;4991;43.566;27.820;2022-08-14T01:36:21;23.33;;;18.90;;
9904;SDS011;4991;43.566;27.820;2022-08-14T01:38:48;20.30;;;18.20;;
9904;SDS011;4991;43.566;27.820;2022-08-14T01:41:16;21.67;;;19.03;;
9904;SDS011;4991;43.566;27.820;2022-08-14T01:43:49;20.03;;;17.93;;
9904;SDS011;4991;43.566;27.820;2022-08-14T01:46:19;22.43;;;18.00;;
9904;SDS011;4991;43.566;27.820;2022-08-14T01:48:48;20.03;;;17.40;;
9904;SDS011;4991;43.566;27.820;2022-08-14T01:51:17;22.30;;;18.63;;
9904;SDS011;4991;43.566;27.820;2022-08-14T01:53:49;20.20;;;18.07;;
9904;SDS011;4991;43.566;27.820;2022-08-14T01:56:18;19.80;;;17.60;;
9904;SDS011;4991;43.566;27.820;2022-08-14T01:58:46;20.00;;;17.70;;
9904;SDS011;4991;43.566;27.820;2022-08-14T02:01:17;18.83;;;16.93;;
9904;SDS011;4991;43.566;27.820;2022-08-14T02:03:45;22.67;;;17.87;;
9904;SDS011;4991;43.566;27.820;2022-08-14T02:06:12;21.47;;;18.90;;
9904;SDS011;4991;43.566;27.820;2022-08-14T02:08:39;20.87;;;18.67;;
9904;SDS011;4991;43.566;27.820;2022-08-14T02:11:06;21.30;;;17.63;;
9904;SDS011;4991;43.566;27.820;2022-08-14T02:13:57;19.70;;;17.00;;
9904;SDS011;4991;43.566;27.820;2022-08-14T02:16:26;22.17;;;18.03;;
9904;SDS011;4991;43.566;27.820;2022-08-14T02:18:57;21.03;;;18.57;;
9904;SDS011;4991;43.566;27.820;2022-08-14T02:21:26;21.43;;;17.90;;
9904;SDS011;4991;43.566;27.820;2022-08-14T02:23:55;23.10;;;17.50;;
9904;SDS011;4991;43.566;27.820;2022-08-14T02:26:25;27.23;;;18.10;;
9904;SDS011;4991;43.566;27.820;2022-08-14T02:28:56;22.30;;;18.60;;
9904;SDS011;4991;43.566;27.820;2022-08-14T02:31:25;22.83;;;18.27;;
9904;SDS011;4991;43.566;27.820;2022-08-14T02:33:56;23.47;;;18.07;;
9904;SDS011;4991;43.566;27.820;2022-08-14T02:36:21;21.63;;;17.70;;
9904;SDS011;4991;43.566;27.820;2022-08-14T02:38:48;21.27;;;17.63;;
9904;SDS011;4991;43.566;27.820;2022-08-14T02:41:13;22.13;;;17.87;;
9904;SDS011;4991;43.566;27.820;2022-08-14T02:43:40;22.50;;;18.07;;
9904;SDS011;4991;43.566;27.820;2022-08-14T02:46:06;19.23;;;17.17;;
9904;SDS011;4991;43.566;27.820;2022-08-14T02:48:38;19.27;;;17.10;;
9904;SDS011;4991;43.566;27.820;2022-08-14T02:51:10;23.67;;;16.80;;
9904;SDS011;4991;43.566;27.820;2022-08-14T02:53:40;19.33;;;17.33;;
9904;SDS011;4991;43.566;27.820;2022-08-14T02:56:08;20.67;;;18.33;;
9904;SDS011;4991;43.566;27.820;2022-08-14T02:58:37;19.87;;;17.77;;
9904;SDS011;4991;43.566;27.820;2022-08-14T03:01:05;22.97;;;18.27;;
9904;SDS011;4991;43.566;27.820;2022-08-14T03:03:32;19.90;;;17.83;;
9904;SDS011;4991;43.566;27.820;2022-08-14T03:06:02;21.67;;;19.03;;
9904;SDS011;4991;43.566;27.820;2022-08-14T03:08:29;19.70;;;17.37;;
9904;SDS011;4991;43.566;27.820;2022-08-14T03:10:59;22.30;;;17.40;;
9904;SDS011;4991;43.566;27.820;2022-08-14T03:13:25;24.20;;;18.53;;
9904;SDS011;4991;43.566;27.820;2022-08-14T03:15:52;19.87;;;17.77;;
9904;SDS011;4991;43.566;27.820;2022-08-14T03:18:18;23.27;;;18.87;;
9904;SDS011;4991;43.566;27.820;2022-08-14T03:20:48;20.80;;;17.97;;
9904;SDS011;4991;43.566;27.820;2022-08-14T03:23:14;21.40;;;17.57;;
9904;SDS011;4991;43.566;27.820;2022-08-14T03:25:39;20.17;;;17.17;;
9904;SDS011;4991;43.566;27.820;2022-08-14T03:28:06;23.50;;;18.20;;
9904;SDS011;4991;43.566;27.820;2022-08-14T03:30:33;19.17;;;17.13;;
9904;SDS011;4991;43.566;27.820;2022-08-14T03:33:00;19.97;;;17.80;;
9904;SDS011;4991;43.566;27.820;2022-08-14T03:35:26;19.03;;;16.87;;
9904;SDS011;4991;43.566;27.820;2022-08-14T03:37:52;19.07;;;17.10;;
9904;SDS011;4991;43.566;27.820;2022-08-14T03:40:19;20.63;;;17.60;;
9904;SDS011;4991;43.566;27.820;2022-08-14T03:42:45;18.77;;;16.60;;
9904;SDS011;4991;43.566;27.820;2022-08-14T03:45:11;20.67;;;17.23;;
9904;SDS011;4991;43.566;27.820;2022-08-14T03:47:38;20.00;;;16.77;;
9904;SDS011;4991;43.566;27.820;2022-08-14T03:50:08;20.90;;;16.77;;
9904;SDS011;4991;43.566;27.820;2022-08-14T03:52:38;19.43;;;16.33;;
9904;SDS011;4991;43.566;27.820;2022-08-14T03:55:05;19.13;;;17.13;;
9904;SDS011;4991;43.566;27.820;2022-08-14T03:57:33;19.07;;;17.00;;
9904;SDS011;4991;43.566;27.820;2022-08-14T04:00:00;22.27;;;16.93;;
9904;SDS011;4991;43.566;27.820;2022-08-14T04:02:31;19.20;;;17.17;;
9904;SDS011;4991;43.566;27.820;2022-08-14T04:04:56;21.47;;;17.23;;
9904;SDS011;4991;43.566;27.820;2022-08-14T04:07:22;19.73;;;16.43;;
9904;SDS011;4991;43.566;27.820;2022-08-14T04:09:48;20.83;;;15.47;;
9904;SDS011;4991;43.566;27.820;2022-08-14T04:12:13;21.40;;;16.47;;
9904;SDS011;4991;43.566;27.820;2022-08-14T04:14:39;18.40;;;16.37;;
9904;SDS011;4991;43.566;27.820;2022-08-14T04:17:05;19.87;;;16.57;;
9904;SDS011;4991;43.566;27.820;2022-08-14T04:19:31;17.67;;;15.77;;
9904;SDS011;4991;43.566;27.820;2022-08-14T04:21:57;21.00;;;16.37;;
9904;SDS011;4991;43.566;27.820;2022-08-14T04:24:25;18.00;;;16.07;;
9904;SDS011;4991;43.566;27.820;2022-08-14T04:26:50;18.47;;;16.53;;
9904;SDS011;4991;43.566;27.820;2022-08-14T04:29:16;22.83;;;17.83;;
9904;SDS011;4991;43.566;27.820;2022-08-14T04:31:42;18.50;;;16.50;;
9904;SDS011;4991;43.566;27.820;2022-08-14T04:34:09;21.53;;;16.97;;
9904;SDS011;4991;43.566;27.820;2022-08-14T04:36:35;20.07;;;16.60;;
9904;SDS011;4991;43.566;27.820;2022-08-14T04:39:20;19.37;;;16.77;;
9904;SDS011;4991;43.566;27.820;2022-08-14T04:42:04;21.17;;;16.90;;
9904;SDS011;4991;43.566;27.820;2022-08-14T04:44:48;20.20;;;17.30;;
9904;SDS011;4991;43.566;27.820;2022-08-14T04:47:14;20.57;;;17.67;;
9904;SDS011;4991;43.566;27.820;2022-08-14T04:50:18;21.30;;;16.77;;
9904;SDS011;4991;43.566;27.820;2022-08-14T04:52:43;22.73;;;17.33;;
9904;SDS011;4991;43.566;27.820;2022-08-14T04:55:09;20.80;;;17.33;;
9904;SDS011;4991;43.566;27.820;2022-08-14T04:57:36;23.83;;;17.57;;
9904;SDS011;4991;43.566;27.820;2022-08-14T05:00:04;23.80;;;17.43;;
9904;SDS011;4991;43.566;27.820;2022-08-14T05:02:31;23.23;;;18.93;;
9904;SDS011;4991;43.566;27.820;2022-08-14T05:04:58;22.50;;;18.27;;
9904;SDS011;4991;43.566;27.820;2022-08-14T05:07:24;24.60;;;18.40;;
9904;SDS011;4991;43.566;27.820;2022-08-14T05:09:50;24.73;;;19.00;;
9904;SDS011;4991;43.566;27.820;2022-08-14T05:12:16;24.63;;;18.97;;
9904;SDS011;4991;43.566;27.820;2022-08-14T05:14:41;21.27;;;18.97;;
9904;SDS011;4991;43.566;27.820;2022-08-14T05:17:08;21.37;;;19.27;;
9904;SDS011;4991;43.566;27.820;2022-08-14T05:19:35;24.13;;;20.17;;
9904;SDS011;4991;43.566;27.820;2022-08-14T05:22:00;22.70;;;20.10;;
9904;SDS011;4991;43.566;27.820;2022-08-14T05:24:27;24.87;;;20.13;;
9904;SDS011;4991;43.566;27.820;2022-08-14T05:26:53;21.93;;;19.00;;
9904;SDS011;4991;43.566;27.820;2022-08-14T05:29:19;24.43;;;20.50;;
9904;SDS011;4991;43.566;27.820;2022-08-14T05:31:44;27.17;;;21.13;;
9904;SDS011;4991;43.566;27.820;2022-08-14T05:34:10;24.20;;;21.27;;
9904;SDS011;4991;43.566;27.820;2022-08-14T05:36:36;22.50;;;20.03;;
9904;SDS011;4991;43.566;27.820;2022-08-14T05:39:02;23.70;;;20.67;;
9904;SDS011;4991;43.566;27.820;2022-08-14T05:41:28;25.03;;;20.83;;
9904;SDS011;4991;43.566;27.820;2022-08-14T05:43:54;27.77;;;21.03;;
9904;SDS011;4991;43.566;27.820;2022-08-14T05:46:19;25.50;;;20.57;;
9904;SDS011;4991;43.566;27.820;2022-08-14T05:48:52;29.03;;;22.23;;
9904;SDS011;4991;43.566;27.820;2022-08-14T05:51:24;24.43;;;21.63;;
9904;SDS011;4991;43.566;27.820;2022-08-14T05:53:51;26.60;;;21.53;;
9904;SDS011;4991;43.566;27.820;2022-08-14T05:56:17;25.50;;;20.27;;
9904;SDS011;4991;43.566;27.820;2022-08-14T05:58:43;24.13;;;21.60;;
9904;SDS011;4991;43.566;27.820;2022-08-14T06:01:09;22.93;;;20.30;;
9904;SDS011;4991;43.566;27.820;2022-08-14T06:03:35;25.27;;;21.77;;
9904;SDS011;4991;43.566;27.820;2022-08-14T06:06:01;26.00;;;21.90;;
9904;SDS011;4991;43.566;27.820;2022-08-14T06:08:27;26.20;;;21.73;;
9904;SDS011;4991;43.566;27.820;2022-08-14T06:10:57;26.43;;;21.07;;
9904;SDS011;4991;43.566;27.820;2022-08-14T06:13:28;24.40;;;21.47;;
9904;SDS011;4991;43.566;27.820;2022-08-14T06:15:54;23.73;;;21.30;;
9904;SDS011;4991;43.566;27.820;2022-08-14T06:18:20;26.77;;;21.23;;
9904;SDS011;4991;43.566;27.820;2022-08-14T06:20:46;26.13;;;22.67;;
9904;SDS011;4991;43.566;27.820;2022-08-14T06:23:11;29.42;;;23.85;;
9904;SDS011;4991;43.566;27.820;2022-08-14T06:25:37;29.67;;;26.45;;
9904;SDS011;4991;43.566;27.820;2022-08-14T06:28:02;26.55;;;21.83;;
9904;SDS011;4991;43.566;27.820;2022-08-14T06:30:30;25.67;;;22.85;;
9904;SDS011;4991;43.566;27.820;2022-08-14T06:32:58;25.60;;;22.85;;
9904;SDS011;4991;43.566;27.820;2022-08-14T06:35:24;25.05;;;22.40;;
9904;SDS011;4991;43.566;27.820;2022-08-14T06:37:50;28.00;;;22.30;;
9904;SDS011;4991;43.566;27.820;2022-08-14T06:40:23;32.10;;;21.98;;
9904;SDS011;4991;43.566;27.820;2022-08-14T06:42:57;23.50;;;20.17;;
9904;SDS011;4991;43.566;27.820;2022-08-14T06:45:24;25.10;;;21.02;;
9904;SDS011;4991;43.566;27.820;2022-08-14T06:47:50;24.23;;;19.85;;
9904;SDS011;4991;43.566;27.820;2022-08-14T06:50:18;29.50;;;20.65;;
9904;SDS011;4991;43.566;27.820;2022-08-14T06:52:45;24.85;;;21.30;;
9904;SDS011;4991;43.566;27.820;2022-08-14T06:55:13;27.40;;;21.13;;
9904;SDS011;4991;43.566;27.820;2022-08-14T06:57:41;25.35;;;20.65;;
9904;SDS011;4991;43.566;27.820;2022-08-14T07:00:18;23.08;;;20.70;;
9904;SDS011;4991;43.566;27.820;2022-08-14T07:02:53;22.92;;;20.63;;
9904;SDS011;4991;43.566;27.820;2022-08-14T07:05:38;24.23;;;19.63;;
9904;SDS011;4991;43.566;27.820;2022-08-14T07:08:21;23.23;;;20.55;;
9904;SDS011;4991;43.566;27.820;2022-08-14T07:10:51;22.65;;;19.48;;
9904;SDS011;4991;43.566;27.820;2022-08-14T07:13:19;24.50;;;21.85;;
9904;SDS011;4991;43.566;27.820;2022-08-14T07:15:50;24.83;;;20.95;;
9904;SDS011;4991;43.566;27.820;2022-08-14T07:18:21;26.25;;;20.95;;
9904;SDS011;4991;43.566;27.820;2022-08-14T07:20:50;24.85;;;22.23;;
9904;SDS011;4991;43.566;27.820;2022-08-14T07:23:17;24.23;;;20.73;;
9904;SDS011;4991;43.566;27.820;2022-08-14T07:25:43;21.95;;;19.65;;
9904;SDS011;4991;43.566;27.820;2022-08-14T07:28:16;22.73;;;19.17;;
9904;SDS011;4991;43.566;27.820;2022-08-14T07:30:50;23.55;;;19.42;;
9904;SDS011;4991;43.566;27.820;2022-08-14T07:33:23;25.02;;;17.40;;
9904;SDS011;4991;43.566;27.820;2022-08-14T07:35:52;22.52;;;18.35;;
9904;SDS011;4991;43.566;27.820;2022-08-14T07:38:20;20.15;;;18.08;;
9904;SDS011;4991;43.566;27.820;2022-08-14T07:40:50;22.85;;;18.70;;
9904;SDS011;4991;43.566;27.820;2022-08-14T07:43:16;23.73;;;19.30;;
9904;SDS011;4991;43.566;27.820;2022-08-14T07:45:42;24.05;;;19.15;;
9904;SDS011;4991;43.566;27.820;2022-08-14T07:48:09;27.17;;;19.67;;
9904;SDS011;4991;43.566;27.820;2022-08-14T07:50:35;20.95;;;18.27;;
9904;SDS011;4991;43.566;27.820;2022-08-14T07:53:01;23.23;;;18.92;;
9904;SDS011;4991;43.566;27.820;2022-08-14T07:55:27;24.15;;;19.23;;
9904;SDS011;4991;43.566;27.820;2022-08-14T07:57:53;23.25;;;18.75;;
9904;SDS011;4991;43.566;27.820;2022-08-14T08:00:20;21.52;;;19.30;;
9904;SDS011;4991;43.566;27.820;2022-08-14T08:02:48;21.98;;;18.30;;
9904;SDS011;4991;43.566;27.820;2022-08-14T08:05:16;25.15;;;18.75;;
9904;SDS011;4991;43.566;27.820;2022-08-14T08:07:43;24.13;;;18.63;;
9904;SDS011;4991;43.566;27.820;2022-08-14T08:10:11;24.40;;;18.52;;
9904;SDS011;4991;43.566;27.820;2022-08-14T08:15:29;21.23;;;17.92;;
9904;SDS011;4991;43.566;27.820;2022-08-14T08:18:02;20.58;;;17.35;;
9904;SDS011;4991;43.566;27.820;2022-08-14T08:20:30;18.55;;;16.15;;
9904;SDS011;4991;43.566;27.820;2022-08-14T08:22:59;24.70;;;17.38;;
9904;SDS011;4991;43.566;27.820;2022-08-14T08:25:28;18.40;;;16.50;;
9904;SDS011;4991;43.566;27.820;2022-08-14T08:28:12;19.25;;;17.23;;
9904;SDS011;4991;43.566;27.820;2022-08-14T08:30:42;20.13;;;16.65;;
9904;SDS011;4991;43.566;27.820;2022-08-14T08:33:13;22.25;;;17.35;;
9904;SDS011;4991;43.566;27.820;2022-08-14T08:35:41;20.30;;;16.27;;
9904;SDS011;4991;43.566;27.820;2022-08-14T08:38:11;18.52;;;16.50;;
9904;SDS011;4991;43.566;27.820;2022-08-14T08:45:52;22.48;;;16.25;;
9904;SDS011;4991;43.566;27.820;2022-08-14T08:48:27;18.90;;;16.75;;
9904;SDS011;4991;43.566;27.820;2022-08-14T08:51:08;21.75;;;16.77;;
9904;SDS011;4991;43.566;27.820;2022-08-14T08:53:34;19.17;;;16.80;;
9904;SDS011;4991;43.566;27.820;2022-08-14T08:56:01;22.00;;;17.15;;
9904;SDS011;4991;43.566;27.820;2022-08-14T08:58:28;21.48;;;16.60;;
9904;SDS011;4991;43.566;27.820;2022-08-14T09:00:55;18.58;;;15.30;;
9904;SDS011;4991;43.566;27.820;2022-08-14T09:03:24;22.38;;;16.25;;
9904;SDS011;4991;43.566;27.820;2022-08-14T09:05:52;17.60;;;15.75;;
9904;SDS011;4991;43.566;27.820;2022-08-14T09:08:30;21.65;;;16.73;;
9904;SDS011;4991;43.566;27.820;2022-08-14T09:10:58;18.70;;;15.93;;
9904;SDS011;4991;43.566;27.820;2022-08-14T09:13:25;17.38;;;15.63;;
9904;SDS011;4991;43.566;27.820;2022-08-14T09:15:52;18.15;;;15.75;;
9904;SDS011;4991;43.566;27.820;2022-08-14T09:18:19;15.07;;;13.52;;
9904;SDS011;4991;43.566;27.820;2022-08-14T09:20:47;16.85;;;13.65;;
9904;SDS011;4991;43.566;27.820;2022-08-14T09:23:14;19.05;;;13.90;;
9904;SDS011;4991;43.566;27.820;2022-08-14T09:25:41;18.08;;;15.32;;
9904;SDS011;4991;43.566;27.820;2022-08-14T09:28:09;18.48;;;14.93;;
9904;SDS011;4991;43.566;27.820;2022-08-14T09:30:36;17.33;;;15.43;;
9904;SDS011;4991;43.566;27.820;2022-08-14T09:47:09;20.45;;;14.90;;
9904;SDS011;4991;43.566;27.820;2022-08-14T09:49:36;18.38;;;15.70;;
9904;SDS011;4991;43.566;27.820;2022-08-14T09:52:07;19.10;;;15.50;;
9904;SDS011;4991;43.566;27.820;2022-08-14T09:54:52;17.75;;;14.70;;
9904;SDS011;4991;43.566;27.820;2022-08-14T09:57:28;25.30;;;15.85;;
9904;SDS011;4991;43.566;27.820;2022-08-14T09:59:55;18.30;;;15.90;;
9904;SDS011;4991;43.566;27.820;2022-08-14T10:02:25;17.08;;;14.88;;
9904;SDS011;4991;43.566;27.820;2022-08-14T10:05:13;16.88;;;14.60;;
9904;SDS011;4991;43.566;27.820;2022-08-14T10:07:47;17.65;;;15.40;;
9904;SDS011;4991;43.566;27.820;2022-08-14T10:10:36;18.13;;;16.23;;
9904;SDS011;4991;43.566;27.820;2022-08-14T10:13:04;17.65;;;15.02;;
9904;SDS011;4991;43.566;27.820;2022-08-14T10:15:35;24.15;;;15.13;;
9904;SDS011;4991;43.566;27.820;2022-08-14T10:18:03;17.77;;;11.90;;
9904;SDS011;4991;43.566;27.820;2022-08-14T10:20:39;26.35;;;14.02;;
9904;SDS011;4991;43.566;27.820;2022-08-14T10:23:26;19.90;;;12.68;;
9904;SDS011;4991;43.566;27.820;2022-08-14T10:25:57;15.13;;;13.48;;
9904;SDS011;4991;43.566;27.820;2022-08-14T10:28:36;16.92;;;14.02;;
9904;SDS011;4991;43.566;27.820;2022-08-14T10:34:07;0.40;;;0.40;;
9904;SDS011;4991;43.566;27.820;2022-08-14T10:36:39;0.40;;;0.40;;
9904;SDS011;4991;43.566;27.820;2022-08-14T10:39:14;0.40;;;0.40;;
9904;SDS011;4991;43.566;27.820;2022-08-14T10:41:42;0.30;;;0.30;;
9904;SDS011;4991;43.566;27.820;2022-08-14T10:44:12;0.40;;;0.40;;
9904;SDS011;4991;43.566;27.820;2022-08-14T10:46:52;0.40;;;0.40;;
9904;SDS011;4991;43.566;27.820;2022-08-14T10:49:28;0.30;;;0.30;;
9904;SDS011;4991;43.566;27.820;2022-08-14T10:54:38;0.50;;;0.50;;
9904;SDS011;4991;43.566;27.820;2022-08-14T10:59:57;0.30;;;0.30;;
9904;SDS011;4991;43.566;27.820;2022-08-14T11:02:28;0.40;;;0.40;;
9904;SDS011;4991;43.566;27.820;2022-08-14T11:05:00;0.40;;;0.40;;
9904;SDS011;4991;43.566;27.820;2022-08-14T11:07:29;0.60;;;0.60;;
9904;SDS011;4991;43.566;27.820;2022-08-14T11:10:00;0.77;;;0.77;;
9904;SDS011;4991;43.566;27.820;2022-08-14T11:12:41;0.73;;;0.73;;
9904;SDS011;4991;43.566;27.820;2022-08-14T11:15:19;0.30;;;0.30;;
9904;SDS011;4991;43.566;27.820;2022-08-14T11:17:47;0.40;;;0.40;;
9904;SDS011;4991;43.566;27.820;2022-08-14T11:20:15;0.40;;;0.40;;
9904;SDS011;4991;43.566;27.820;2022-08-14T11:22:44;0.30;;;0.30;;
9904;SDS011;4991;43.566;27.820;2022-08-14T11:25:12;0.30;;;0.30;;
9904;SDS011;4991;43.566;27.820;2022-08-14T11:27:41;0.40;;;0.40;;
9904;SDS011;4991;43.566;27.820;2022-08-14T11:30:10;0.30;;;0.30;;
9904;SDS011;4991;43.566;27.820;2022-08-14T11:32:38;0.40;;;0.40;;
9904;SDS011;4991;43.566;27.820;2022-08-14T11:35:11;0.40;;;0.40;;
9904;SDS011;4991;43.566;27.820;2022-08-14T11:40:25;0.70;;;0.70;;
9904;SDS011;4991;43.566;27.820;2022-08-14T11:43:04;0.45;;;0.45;;
9904;SDS011;4991;43.566;27.820;2022-08-14T11:45:32;0.70;;;0.70;;
9904;SDS011;4991;43.566;27.820;2022-08-14T11:48:23;0.50;;;0.50;;
9904;SDS011;4991;43.566;27.820;2022-08-14T11:50:49;0.30;;;0.30;;
9904;SDS011;4991;43.566;27.820;2022-08-14T11:55:44;0.30;;;0.30;;
9904;SDS011;4991;43.566;27.820;2022-08-14T11:58:10;0.33;;;0.33;;
9904;SDS011;4991;43.566;27.820;2022-08-14T12:00:50;0.40;;;0.40;;
9904;SDS011;4991;43.566;27.820;2022-08-14T12:03:37;0.40;;;0.40;;
9904;SDS011;4991;43.566;27.820;2022-08-14T12:06:08;0.40;;;0.40;;
9904;SDS011;4991;43.566;27.820;2022-08-14T12:08:36;3.90;;;1.87;;
9904;SDS011;4991;43.566;27.820;2022-08-14T12:11:03;0.50;;;0.50;;
9904;SDS011;4991;43.566;27.820;2022-08-14T12:13:32;0.40;;;0.40;;
9904;SDS011;4991;43.566;27.820;2022-08-14T12:15:59;0.30;;;0.30;;
9904;SDS011;4991;43.566;27.820;2022-08-14T12:18:32;0.30;;;0.30;;
9904;SDS011;4991;43.566;27.820;2022-08-14T12:21:08;0.40;;;0.40;;
9904;SDS011;4991;43.566;27.820;2022-08-14T12:23:39;0.57;;;0.57;;
9904;SDS011;4991;43.566;27.820;2022-08-14T12:26:09;0.30;;;0.30;;
9904;SDS011;4991;43.566;27.820;2022-08-14T12:28:40;1.10;;;1.10;;
9904;SDS011;4991;43.566;27.820;2022-08-14T12:31:16;0.30;;;0.30;;
9904;SDS011;4991;43.566;27.820;2022-08-14T12:34:00;0.30;;;0.30;;
9904;SDS011;4991;43.566;27.820;2022-08-14T12:36:27;0.75;;;0.75;;
9904;SDS011;4991;43.566;27.820;2022-08-14T12:38:57;0.32;;;0.32;;
9904;SDS011;4991;43.566;27.820;2022-08-14T12:41:31;0.30;;;0.30;;
9904;SDS011;4991;43.566;27.820;2022-08-14T12:44:03;0.73;;;0.70;;
9904;SDS011;4991;43.566;27.820;2022-08-14T12:46:33;0.40;;;0.40;;
9904;SDS011;4991;43.566;27.820;2022-08-14T12:49:07;0.40;;;0.40;;
9904;SDS011;4991;43.566;27.820;2022-08-14T12:51:34;0.47;;;0.47;;
9904;SDS011;4991;43.566;27.820;2022-08-14T12:54:10;0.30;;;0.30;;
9904;SDS011;4991;43.566;27.820;2022-08-14T12:56:40;1.00;;;1.00;;
9904;SDS011;4991;43.566;27.820;2022-08-14T12:59:06;0.40;;;0.40;;
9904;SDS011;4991;43.566;27.820;2022-08-14T13:01:33;0.30;;;0.30;;
9904;SDS011;4991;43.566;27.820;2022-08-14T13:06:37;0.40;;;0.40;;
9904;SDS011;4991;43.566;27.820;2022-08-14T13:09:06;0.30;;;0.30;;
9904;SDS011;4991;43.566;27.820;2022-08-14T13:11:43;0.40;;;0.40;;
9904;SDS011;4991;43.566;27.820;2022-08-14T13:14:17;0.40;;;0.40;;
9904;SDS011;4991;43.566;27.820;2022-08-14T13:16:49;0.40;;;0.40;;
9904;SDS011;4991;43.566;27.820;2022-08-14T13:19:19;0.40;;;0.40;;
9904;SDS011;4991;43.566;27.820;2022-08-14T13:21:46;0.40;;;0.40;;
9904;SDS011;4991;43.566;27.820;2022-08-14T13:24:15;0.40;;;0.40;;
9904;SDS011;4991;43.566;27.820;2022-08-14T13:26:45;0.40;;;0.40;;
9904;SDS011;4991;43.566;27.820;2022-08-14T13:29:19;3.72;;;1.83;;
9904;SDS011;4991;43.566;27.820;2022-08-14T13:31:50;0.40;;;0.40;;
9904;SDS011;4991;43.566;27.820;2022-08-14T13:34:20;0.68;;;0.68;;
9904;SDS011;4991;43.566;27.820;2022-08-14T13:36:47;0.55;;;0.55;;
9904;SDS011;4991;43.566;27.820;2022-08-14T13:39:18;0.30;;;0.30;;
9904;SDS011;4991;43.566;27.820;2022-08-14T13:41:45;0.98;;;0.98;;
9904;SDS011;4991;43.566;27.820;2022-08-14T13:44:12;0.32;;;0.32;;
9904;SDS011;4991;43.566;27.820;2022-08-14T13:46:39;1.00;;;1.00;;
9904;SDS011;4991;43.566;27.820;2022-08-14T13:49:05;0.40;;;0.40;;
9904;SDS011;4991;43.566;27.820;2022-08-14T13:51:37;0.43;;;0.43;;
9904;SDS011;4991;43.566;27.820;2022-08-14T13:54:05;0.63;;;0.63;;
9904;SDS011;4991;43.566;27.820;2022-08-14T13:56:34;0.40;;;0.40;;
9904;SDS011;4991;43.566;27.820;2022-08-14T13:59:04;0.40;;;0.40;;
9904;SDS011;4991;43.566;27.820;2022-08-14T14:01:31;0.50;;;0.50;;
9904;SDS011;4991;43.566;27.820;2022-08-14T14:04:01;0.40;;;0.40;;
9904;SDS011;4991;43.566;27.820;2022-08-14T14:06:29;0.50;;;0.50;;
9904;SDS011;4991;43.566;27.820;2022-08-14T14:08:57;0.50;;;0.50;;
9904;SDS011;4991;43.566;27.820;2022-08-14T14:11:23;0.50;;;0.50;;
9904;SDS011;4991;43.566;27.820;2022-08-14T14:13:49;0.50;;;0.50;;
9904;SDS011;4991;43.566;27.820;2022-08-14T14:16:17;0.60;;;0.60;;
9904;SDS011;4991;43.566;27.820;2022-08-14T14:18:46;3.72;;;3.40;;
9904;SDS011;4991;43.566;27.820;2022-08-14T14:21:16;11.55;;;10.48;;
9904;SDS011;4991;43.566;27.820;2022-08-14T14:23:43;11.90;;;10.75;;
9904;SDS011;4991;43.566;27.820;2022-08-14T14:26:13;10.93;;;9.93;;
9904;SDS011;4991;43.566;27.820;2022-08-14T14:28:45;9.95;;;9.05;;
9904;SDS011;4991;43.566;27.820;2022-08-14T14:31:22;9.80;;;8.82;;
9904;SDS011;4991;43.566;27.820;2022-08-14T14:33:55;11.90;;;8.52;;
9904;SDS011;4991;43.566;27.820;2022-08-14T14:36:27;11.27;;;9.00;;
9904;SDS011;4991;43.566;27.820;2022-08-14T14:39:02;9.68;;;8.77;;
9904;SDS011;4991;43.566;27.820;2022-08-14T14:41:32;9.38;;;8.18;;
9904;SDS011;4991;43.566;27.820;2022-08-14T14:44:02;10.50;;;9.38;;
9904;SDS011;4991;43.566;27.820;2022-08-14T14:46:30;13.07;;;9.48;;
9904;SDS011;4991;43.566;27.820;2022-08-14T14:49:00;10.95;;;9.05;;
9904;SDS011;4991;43.566;27.820;2022-08-14T14:51:28;10.18;;;9.18;;
9904;SDS011;4991;43.566;27.820;2022-08-14T14:53:54;13.60;;;8.80;;
9904;SDS011;4991;43.566;27.820;2022-08-14T14:56:21;9.82;;;8.48;;
9904;SDS011;4991;43.566;27.820;2022-08-14T14:58:49;10.65;;;8.90;;
9904;SDS011;4991;43.566;27.820;2022-08-14T15:01:15;10.25;;;9.13;;
9904;SDS011;4991;43.566;27.820;2022-08-14T15:03:45;10.75;;;8.68;;
9904;SDS011;4991;43.566;27.820;2022-08-14T15:06:10;11.07;;;9.10;;
9904;SDS011;4991;43.566;27.820;2022-08-14T15:08:36;10.75;;;9.63;;
9904;SDS011;4991;43.566;27.820;2022-08-14T15:11:04;9.70;;;8.70;;
9904;SDS011;4991;43.566;27.820;2022-08-14T15:13:32;10.23;;;9.18;;
9904;SDS011;4991;43.566;27.820;2022-08-14T15:15:58;11.85;;;10.13;;
9904;SDS011;4991;43.566;27.820;2022-08-14T15:18:24;11.13;;;9.38;;
9904;SDS011;4991;43.566;27.820;2022-08-14T15:20:51;9.73;;;8.82;;
9904;SDS011;4991;43.566;27.820;2022-08-14T15:23:21;11.07;;;9.27;;
9904;SDS011;4991;43.566;27.820;2022-08-14T15:25:47;12.15;;;8.90;;
9904;SDS011;4991;43.566;27.820;2022-08-14T15:28:13;9.75;;;8.48;;
9904;SDS011;4991;43.566;27.820;2022-08-14T15:30:41;9.70;;;8.38;;
9904;SDS011;4991;43.566;27.820;2022-08-14T15:33:11;10.48;;;8.88;;
9904;SDS011;4991;43.566;27.820;2022-08-14T15:35:37;14.38;;;9.13;;